Bf Caroda — V2CV5 — position and weather

sailwx.info

Track history (hours):
 
Tides and Currents Weather Stations Pressure Air Temp Water Temp Dewpoint Dewpoint Depression Visibility Wind Speed Wind Dir Waves Ship Positions

Bf Caroda

Last reported at 2014-Oct-20 19:33 UTC. Time now 2014-Oct-21 21:34 UTC.
Position N 35°45' W 006°08'.

Length 134 m; draft 7.4 m.

Type: Ship (hazmat cat A). MMSI: 304678000.

Date/timePositionNaut miles runAvg speedWind from/ knotsBaromVisibWave heightAir tempDewpointWater temp
2014-Oct-20 19:33N 35°45' W 006°08'3115.6
2014-Oct-20 17:33N 35°58' W 005°33'2 0.1
2014-Oct-19 20:31N 35°58' W 005°30'1414.6
2014-Oct-19 19:33N 36°02' W 005°14'21715.5
2014-Oct-19 05:33N 37°16' W 001°00'1717.4
2014-Oct-19 04:33N 37°28' W 000°44'1717.3
2014-Oct-19 03:33N 37°40' W 000°29'1717.0
2014-Oct-19 02:33N 37°54' W 000°17'1716.7
2014-Oct-19 01:33N 38°08' W 000°06'1716.8
2014-Oct-19 00:32N 38°23' E 000°06'5714.3
2014-Oct-18 20:32N 39°19' W 000°09'1111.6
2014-Oct-18 19:34N 39°27' W 000°19'0 0.0
2014-Oct-18 18:32N 39°27' W 000°19'0 0.0
2014-Oct-18 17:31N 39°27' W 000°19'0 0.0
2014-Oct-18 16:31N 39°27' W 000°19'0 0.0
2014-Oct-18 15:33N 39°27' W 000°19'0 0.0
2014-Oct-18 14:33N 39°27' W 000°19'0 0.0
2014-Oct-18 13:33N 39°27' W 000°19'0 0.0
2014-Oct-18 12:32N 39°27' W 000°19'0 0.0
2014-Oct-18 11:32N 39°27' W 000°19'0 0.0
2014-Oct-18 10:31N 39°27' W 000°19'0 0.0
2014-Oct-18 09:31N 39°27' W 000°19'0 0.0
2014-Oct-18 08:33N 39°27' W 000°19'0 0.0
2014-Oct-18 07:33N 39°27' W 000°19'0 0.2
2014-Oct-18 06:33N 39°27' W 000°19'4 4.5
2014-Oct-18 05:33N 39°26' W 000°13'4 3.6
2014-Oct-18 04:33N 39°28' W 000°10'1716.9
2014-Oct-18 03:33N 39°40' E 000°05'1917.4
2014-Oct-18 02:26N 39°55' E 000°22'1517.1
2014-Oct-18 01:33N 40°05' E 000°37'1716.7
2014-Oct-18 00:33N 40°16' E 000°53'1716.8
2014-Oct-17 23:33N 40°27' E 001°10'1716.9
2014-Oct-17 22:33N 40°37' E 001°27'1919.4
2014-Oct-17 21:33N 40°51' E 001°46'1414.5
2014-Oct-17 20:33N 41°01' E 001°60'1916.9
2014-Oct-17 19:26N 41°14' E 002°17'1916.4
2014-Oct-17 18:15N 41°25' E 002°38'1417.6
2014-Oct-17 17:28N 41°34' E 002°52'1516.1
2014-Oct-17 16:33N 41°44' E 003°07'1717.0
2014-Oct-17 15:33N 41°56' E 003°24'1716.4
2014-Oct-17 14:29N 42°08' E 003°41'1616.8
2014-Oct-17 13:31N 42°19' E 003°57'1717.2
2014-Oct-17 12:33N 42°31' E 004°13'2017.4
2014-Oct-17 11:25N 42°45' E 004°31'2017.2
2014-Oct-17 10:15N 42°59' E 004°51'1217.1
2014-Oct-17 09:33N 43°08' E 005°02'1616.3
2014-Oct-17 08:33N 43°20' E 005°17'3 0.3
2014-Oct-17 00:31N 43°21' E 005°20'0 0.0
2014-Oct-16 17:16N 43°21' E 005°20'0 0.0
2014-Oct-16 13:05N 43°21' E 005°20'0 0.0
2014-Oct-16 10:20N 43°21' E 005°20'0 0.3
2014-Oct-16 09:33N 43°21' E 005°20'1110.7
2014-Oct-16 08:33N 43°13' E 005°10'2016.4
2014-Oct-16 07:20N 42°58' E 004°51'1414.9
2014-Oct-16 06:25N 42°49' E 004°38'1416.3
2014-Oct-16 05:31N 42°39' E 004°24'11115.9
2014-Oct-15 22:32N 41°26' E 002°31'1716.7
2014-Oct-15 21:33N 41°17' E 002°12'5 0.9
2014-Oct-15 16:32N 41°21' E 002°10'0 0.0
2014-Oct-15 13:24N 41°21' E 002°10'0 0.0
2014-Oct-15 10:31N 41°21' E 002°10'3 2.7
2014-Oct-15 09:25N 41°18' E 002°11'  
2014-Oct-12 11:32N 41°19' E 002°11'0 0.0
2014-Oct-12 06:05N 41°18' E 002°11'0 0.0
2014-Oct-12 03:16N 41°18' E 002°11'0 0.0
2014-Oct-12 01:21N 41°18' E 002°11'0 0.0
2014-Oct-12 00:27N 41°18' E 002°11'0 0.0
2014-Oct-11 23:14N 41°18' E 002°11'0 0.0
2014-Oct-11 22:14N 41°18' E 002°11'0 0.0
2014-Oct-11 20:13N 41°18' E 002°11'0 0.0
2014-Oct-11 16:11N 41°18' E 002°11'0 0.0
2014-Oct-11 10:15N 41°18' E 002°11'0 0.0
2014-Oct-11 09:14N 41°18' E 002°11'0 0.0
2014-Oct-11 06:31N 41°18' E 002°11'0 0.0
2014-Oct-11 04:30N 41°18' E 002°11'0 0.0
2014-Oct-11 03:05N 41°18' E 002°11'0 0.0
2014-Oct-11 02:29N 41°18' E 002°11'0 0.0
2014-Oct-11 01:05N 41°18' E 002°11'0 0.0
2014-Oct-11 00:22N 41°18' E 002°11'0 0.0
2014-Oct-10 22:21N 41°18' E 002°11'0 0.0
2014-Oct-10 21:33N 41°18' E 002°11'0 0.0
2014-Oct-10 20:27N 41°18' E 002°11'  
Track history (hours):
 
Tides and Currents Weather Stations Pressure Air Temp Water Temp Dewpoint Dewpoint Depression Visibility Wind Speed Wind Dir Waves Ship Positions

Bf Caroda

Last reported at 2014-Oct-20 19:33 UTC. Time now 2014-Oct-21 21:34 UTC.
Position N 35°45' W 006°08'.

Length 134 m; draft 7.4 m.

Type: Ship (hazmat cat A). MMSI: 304678000.

Date/timePositionNaut miles runAvg speedWind from/ knotsBaromVisibWave heightAir tempDewpointWater temp
2014-Oct-20 19:33N 35°45' W 006°08'3115.6
2014-Oct-20 17:33N 35°58' W 005°33'2 0.1
2014-Oct-19 20:31N 35°58' W 005°30'1414.6
2014-Oct-19 19:33N 36°02' W 005°14'21715.5
2014-Oct-19 05:33N 37°16' W 001°00'1717.4
2014-Oct-19 04:33N 37°28' W 000°44'1717.3
2014-Oct-19 03:33N 37°40' W 000°29'1717.0
2014-Oct-19 02:33N 37°54' W 000°17'1716.7
2014-Oct-19 01:33N 38°08' W 000°06'1716.8
2014-Oct-19 00:32N 38°23' E 000°06'5714.3
2014-Oct-18 20:32N 39°19' W 000°09'1111.6
2014-Oct-18 19:34N 39°27' W 000°19'0 0.0
2014-Oct-18 18:32N 39°27' W 000°19'0 0.0
2014-Oct-18 17:31N 39°27' W 000°19'0 0.0
2014-Oct-18 16:31N 39°27' W 000°19'0 0.0
2014-Oct-18 15:33N 39°27' W 000°19'0 0.0
2014-Oct-18 14:33N 39°27' W 000°19'0 0.0
2014-Oct-18 13:33N 39°27' W 000°19'0 0.0
2014-Oct-18 12:32N 39°27' W 000°19'0 0.0
2014-Oct-18 11:32N 39°27' W 000°19'0 0.0
2014-Oct-18 10:31N 39°27' W 000°19'0 0.0
2014-Oct-18 09:31N 39°27' W 000°19'0 0.0
2014-Oct-18 08:33N 39°27' W 000°19'0 0.0
2014-Oct-18 07:33N 39°27' W 000°19'0 0.2
2014-Oct-18 06:33N 39°27' W 000°19'4 4.5
2014-Oct-18 05:33N 39°26' W 000°13'4 3.6
2014-Oct-18 04:33N 39°28' W 000°10'1716.9
2014-Oct-18 03:33N 39°40' E 000°05'1917.4
2014-Oct-18 02:26N 39°55' E 000°22'1517.1
2014-Oct-18 01:33N 40°05' E 000°37'1716.7
2014-Oct-18 00:33N 40°16' E 000°53'1716.8
2014-Oct-17 23:33N 40°27' E 001°10'1716.9
2014-Oct-17 22:33N 40°37' E 001°27'1919.4
2014-Oct-17 21:33N 40°51' E 001°46'1414.5
2014-Oct-17 20:33N 41°01' E 001°60'1916.9
2014-Oct-17 19:26N 41°14' E 002°17'1916.4
2014-Oct-17 18:15N 41°25' E 002°38'1417.6
2014-Oct-17 17:28N 41°34' E 002°52'1516.1
2014-Oct-17 16:33N 41°44' E 003°07'1717.0
2014-Oct-17 15:33N 41°56' E 003°24'1716.4
2014-Oct-17 14:29N 42°08' E 003°41'1616.8
2014-Oct-17 13:31N 42°19' E 003°57'1717.2
2014-Oct-17 12:33N 42°31' E 004°13'2017.4
2014-Oct-17 11:25N 42°45' E 004°31'2017.2
2014-Oct-17 10:15N 42°59' E 004°51'1217.1
2014-Oct-17 09:33N 43°08' E 005°02'1616.3
2014-Oct-17 08:33N 43°20' E 005°17'3 0.3
2014-Oct-17 00:31N 43°21' E 005°20'0 0.0
2014-Oct-16 17:16N 43°21' E 005°20'0 0.0
2014-Oct-16 13:05N 43°21' E 005°20'0 0.0
2014-Oct-16 10:20N 43°21' E 005°20'0 0.3
2014-Oct-16 09:33N 43°21' E 005°20'1110.7
2014-Oct-16 08:33N 43°13' E 005°10'2016.4
2014-Oct-16 07:20N 42°58' E 004°51'1414.9
2014-Oct-16 06:25N 42°49' E 004°38'1416.3
2014-Oct-16 05:31N 42°39' E 004°24'11115.9
2014-Oct-15 22:32N 41°26' E 002°31'1716.7
2014-Oct-15 21:33N 41°17' E 002°12'5 0.9
2014-Oct-15 16:32N 41°21' E 002°10'0 0.0
2014-Oct-15 13:24N 41°21' E 002°10'0 0.0
2014-Oct-15 10:31N 41°21' E 002°10'3 2.7
2014-Oct-15 09:25N 41°18' E 002°11'  
2014-Oct-12 11:32N 41°19' E 002°11'0 0.0
2014-Oct-12 06:05N 41°18' E 002°11'0 0.0
2014-Oct-12 03:16N 41°18' E 002°11'0 0.0
2014-Oct-12 01:21N 41°18' E 002°11'0 0.0
2014-Oct-12 00:27N 41°18' E 002°11'0 0.0
2014-Oct-11 23:14N 41°18' E 002°11'0 0.0
2014-Oct-11 22:14N 41°18' E 002°11'0 0.0
2014-Oct-11 20:13N 41°18' E 002°11'0 0.0
2014-Oct-11 16:11N 41°18' E 002°11'0 0.0
2014-Oct-11 10:15N 41°18' E 002°11'0 0.0
2014-Oct-11 09:14N 41°18' E 002°11'0 0.0
2014-Oct-11 06:31N 41°18' E 002°11'0 0.0
2014-Oct-11 04:30N 41°18' E 002°11'0 0.0
2014-Oct-11 03:05N 41°18' E 002°11'0 0.0
2014-Oct-11 02:29N 41°18' E 002°11'0 0.0
2014-Oct-11 01:05N 41°18' E 002°11'0 0.0
2014-Oct-11 00:22N 41°18' E 002°11'0 0.0
2014-Oct-10 22:21N 41°18' E 002°11'0 0.0
2014-Oct-10 21:33N 41°18' E 002°11'0 0.0
2014-Oct-10 20:27N 41°18' E 002°11'  

Dump ship's entire track history